Time;durP1;ratioP1;P1;durP2;ratioP2;P2;SDS_P1;SDS_P2;PMS_P1;PMS_P2;Temp;Humidity;BMP_temperature;BMP_pressure;BME280_temperature;BME280_humidity;BME280_pressure;Samples;Min_cycle;Max_cycle;Signal;HPM_P1;HPM_P2
2022/08/30 00:01:19;;;;;;;7.82;5.68;;;;;;;22.65;59.07;93743.09;4838243;29;20030;-88
2022/08/30 00:03:45;;;;;;;8.30;5.35;;;;;;;22.63;58.88;93742.88;4837609;29;20034;-89
2022/08/30 00:06:11;;;;;;;6.88;5.60;;;;;;;22.64;59.02;93736.09;4854585;29;20041;-89
2022/08/30 00:08:36;;;;;;;7.82;5.85;;;;;;;22.62;58.81;93738.63;4861035;29;20044;-88
2022/08/30 00:11:03;;;;;;;8.57;5.50;;;;;;;22.63;58.93;93740.13;4874409;29;20092;-89
2022/08/30 00:13:29;;;;;;;9.65;5.80;;;;;;;22.63;58.84;93729.84;4859378;29;20044;-88
2022/08/30 00:15:54;;;;;;;7.70;5.70;;;;;;;22.63;58.77;93731.84;4860028;29;20029;-89
2022/08/30 00:18:20;;;;;;;6.72;5.40;;;;;;;22.61;58.74;93732.38;4831015;29;20409;-88
2022/08/30 00:20:46;;;;;;;8.05;5.80;;;;;;;22.62;58.92;93733.13;4875945;29;20033;-89
2022/08/30 00:23:12;;;;;;;6.85;4.88;;;;;;;22.61;58.75;93729.63;4847405;29;20056;-88
2022/08/30 00:25:37;;;;;;;6.97;5.70;;;;;;;22.62;58.87;93730.38;4855332;29;20068;-89
2022/08/30 00:28:03;;;;;;;7.93;5.05;;;;;;;22.60;58.98;93730.16;4841887;29;20070;-88
2022/08/30 00:30:28;;;;;;;8.32;5.50;;;;;;;22.61;58.91;93732.38;4842302;29;20678;-88
2022/08/30 00:32:54;;;;;;;7.53;5.38;;;;;;;22.60;59.02;93739.16;4841926;29;20041;-88
2022/08/30 00:35:19;;;;;;;6.93;4.97;;;;;;;22.59;58.76;93737.69;4844161;29;20060;-89
2022/08/30 00:37:45;;;;;;;8.05;5.28;;;;;;;22.62;58.90;93742.13;4875996;29;20048;-89
2022/08/30 00:40:11;;;;;;;6.47;4.82;;;;;;;22.61;58.88;93737.16;4860292;29;20045;-88
2022/08/30 00:42:37;;;;;;;5.60;4.72;;;;;;;22.63;58.83;93735.34;4860244;29;20064;-89
2022/08/30 00:45:23;;;;;;;8.05;5.90;;;;;;;22.61;58.79;93740.66;4860534;29;20044;-88
2022/08/30 00:47:48;;;;;;;6.38;4.85;;;;;;;22.60;58.98;93730.16;4857732;29;20091;-88
2022/08/30 00:50:16;;;;;;;7.72;4.30;;;;;;;22.61;58.80;93735.16;4844769;29;20479;-89
2022/08/30 00:52:43;;;;;;;6.93;5.18;;;;;;;22.59;58.77;93737.69;4863370;29;20111;-88
2022/08/30 00:55:09;;;;;;;6.18;4.20;;;;;;;22.60;58.75;93732.91;4862680;29;20068;-88
2022/08/30 00:57:34;;;;;;;6.95;5.60;;;;;;;22.59;58.80;93737.69;4842060;29;20048;-89
2022/08/30 01:00:00;;;;;;;6.75;5.00;;;;;;;22.61;58.92;93726.13;4846036;29;20400;-89
2022/08/30 01:02:26;;;;;;;7.03;5.20;;;;;;;22.59;58.66;93723.91;4861816;29;20041;-88
2022/08/30 01:04:51;;;;;;;6.55;5.13;;;;;;;22.60;58.75;93725.38;4864914;29;20040;-89
2022/08/30 01:07:17;;;;;;;4.50;3.78;;;;;;;22.59;58.67;93729.41;4864431;29;20055;-90
2022/08/30 01:09:43;;;;;;;7.30;5.03;;;;;;;22.61;58.63;93726.13;4880646;29;20412;-88
2022/08/30 01:12:09;;;;;;;7.60;4.88;;;;;;;22.59;58.71;93729.41;4879529;29;20036;-89
2022/08/30 01:14:34;;;;;;;5.57;4.20;;;;;;;22.58;58.75;93720.41;4864662;29;20036;-89
2022/08/30 01:17:03;;;;;;;6.20;4.72;;;;;;;22.58;58.80;93717.66;4875596;29;20056;-89
2022/08/30 01:19:48;;;;;;;5.78;4.88;;;;;;;22.57;58.89;93721.69;4857324;29;20040;-89
2022/08/30 01:22:33;;;;;;;6.60;4.65;;;;;;;22.58;58.66;93719.66;4877267;29;20069;-89
2022/08/30 01:24:59;;;;;;;5.80;4.25;;;;;;;22.60;58.68;93727.41;4847198;29;20045;-89
2022/08/30 01:27:25;;;;;;;6.68;4.80;;;;;;;22.58;58.61;93725.19;4871276;29;20100;-90
2022/08/30 01:29:50;;;;;;;5.18;4.47;;;;;;;22.57;58.70;93720.94;4880491;29;20063;-88
2022/08/30 01:32:18;;;;;;;6.55;4.47;;;;;;;22.56;58.72;93713.94;4879913;29;20040;-88
2022/08/30 01:34:47;;;;;;;6.15;4.70;;;;;;;22.56;58.90;93713.94;4864036;29;20048;-89
2022/08/30 01:37:16;;;;;;;5.45;4.03;;;;;;;22.57;58.68;93716.16;4861237;29;20524;-89
2022/08/30 01:39:44;;;;;;;5.53;3.88;;;;;;;22.57;58.87;93715.44;4862266;29;20048;-89
2022/08/30 01:42:09;;;;;;;6.20;4.75;;;;;;;22.58;58.82;93717.66;4858017;29;20052;-89
2022/08/30 01:44:35;;;;;;;5.00;4.30;;;;;;;22.56;58.76;93722.22;4847165;29;20405;-89
2022/08/30 01:47:00;;;;;;;5.70;4.10;;;;;;;22.56;58.92;93720.19;4847839;29;20430;-88
2022/08/30 01:49:25;;;;;;;7.22;4.70;;;;;;;22.57;58.81;93720.94;4847845;29;20414;-89
2022/08/30 01:51:51;;;;;;;6.47;4.30;;;;;;;22.58;58.77;93720.41;4848193;29;20033;-88
2022/08/30 01:54:16;;;;;;;5.50;4.13;;;;;;;22.54;58.86;93719.25;4861735;29;20049;-88
2022/08/30 01:56:42;;;;;;;5.85;4.20;;;;;;;22.55;58.70;93715.97;4856259;29;20051;-88
2022/08/30 01:59:07;;;;;;;4.70;4.10;;;;;;;22.57;58.44;93718.19;4843268;29;20049;-89
2022/08/30 02:01:35;;;;;;;6.43;4.40;;;;;;;22.54;58.73;93711.72;4842350;29;20053;-88
2022/08/30 02:04:01;;;;;;;5.32;4.68;;;;;;;22.54;58.68;93716.47;4843195;29;20502;-88
2022/08/30 02:06:27;;;;;;;5.18;3.95;;;;;;;22.54;58.97;93710.97;4842724;29;20041;-87
2022/08/30 02:08:52;;;;;;;6.70;4.45;;;;;;;22.57;58.76;93704.41;4844298;29;20501;-89
2022/08/30 02:11:18;;;;;;;4.93;4.43;;;;;;;22.53;58.86;93704.72;4853473;29;20040;-88
2022/08/30 02:13:44;;;;;;;6.10;4.65;;;;;;;22.55;58.53;93713.19;4881117;29;20033;-89
2022/08/30 02:16:12;;;;;;;4.78;4.07;;;;;;;22.54;58.90;93706.22;4877913;29;20041;-89
2022/08/30 02:18:38;;;;;;;5.70;4.30;;;;;;;22.55;58.57;93707.69;4847623;29;20041;-89
2022/08/30 02:21:04;;;;;;;4.47;3.92;;;;;;;22.55;58.65;93713.19;4860097;29;20037;-88
2022/08/30 02:23:30;;;;;;;5.18;3.83;;;;;;;22.55;58.59;93709.69;4847901;29;20037;-88
2022/08/30 02:25:55;;;;;;;5.30;4.13;;;;;;;22.53;58.65;93718.50;4863997;29;20606;-88
2022/08/30 02:28:24;;;;;;;5.68;4.03;;;;;;;22.56;58.35;93716.69;4879265;29;20041;-89
2022/08/30 02:30:49;;;;;;;4.82;3.92;;;;;;;22.56;58.53;93705.69;4863573;29;20048;-89
2022/08/30 02:33:15;;;;;;;4.70;4.15;;;;;;;22.57;58.90;93715.44;4879313;29;20416;-88
2022/08/30 02:35:40;;;;;;;3.90;3.35;;;;;;;22.54;58.54;93710.97;4878072;29;20032;-88
2022/08/30 02:38:06;;;;;;;5.32;4.10;;;;;;;22.53;58.63;93703.97;4878301;29;20447;-88
2022/08/30 02:40:32;;;;;;;4.40;3.97;;;;;;;22.54;58.60;93714.47;4860323;29;20500;-88
2022/08/30 02:42:57;;;;;;;4.50;3.55;;;;;;;22.53;58.60;93707.47;4845552;29;20512;-89
2022/08/30 02:45:23;;;;;;;6.55;4.65;;;;;;;22.53;58.71;93717.75;4859899;29;20389;-89
2022/08/30 02:47:48;;;;;;;4.55;3.60;;;;;;;22.52;58.74;93717.00;4869338;29;20463;-88
2022/08/30 02:50:16;;;;;;;6.18;4.75;;;;;;;22.52;58.54;93722.53;4877886;29;20037;-89
2022/08/30 02:52:41;;;;;;;4.28;3.88;;;;;;;22.53;58.43;93713.00;4878405;29;20119;-89
2022/08/30 02:55:07;;;;;;;4.95;3.53;;;;;;;22.53;58.36;93710.22;4877578;29;20045;-88
2022/08/30 02:57:34;;;;;;;4.40;4.00;;;;;;;22.52;58.12;93713.50;4848306;29;20041;-88
2022/08/30 03:00:00;;;;;;;5.00;3.90;;;;;;;22.51;58.68;93715.56;4870765;29;20044;-89
2022/08/30 03:02:25;;;;;;;5.15;3.88;;;;;;;22.52;58.53;93719.78;4877206;29;20040;-89
2022/08/30 03:04:51;;;;;;;4.47;3.75;;;;;;;22.53;58.48;93718.50;4862559;29;20053;-88
2022/08/30 03:07:16;;;;;;;4.38;3.75;;;;;;;22.52;58.51;93708.00;4877964;29;20505;-89
2022/08/30 03:09:42;;;;;;;5.00;3.80;;;;;;;22.50;58.45;93713.34;4878554;29;20036;-89
2022/08/30 03:12:07;;;;;;;5.47;3.65;;;;;;;22.52;58.50;93708.75;4867229;29;20097;-89
2022/08/30 03:14:35;;;;;;;4.70;3.70;;;;;;;22.52;58.85;93710.75;4843946;29;20082;-89
2022/08/30 03:17:01;;;;;;;4.32;3.35;;;;;;;22.51;58.40;93712.81;4860557;29;20037;-89
2022/08/30 03:19:26;;;;;;;4.38;3.63;;;;;;;22.51;58.60;93703.78;4844053;29;20061;-88
2022/08/30 03:21:51;;;;;;;4.15;3.70;;;;;;;22.50;58.47;93711.31;4829774;29;20037;-89
2022/08/30 03:24:19;;;;;;;4.88;3.95;;;;;;;22.51;58.62;93717.56;4843763;29;20077;-89
2022/08/30 03:26:44;;;;;;;5.60;3.67;;;;;;;22.50;58.56;93714.06;4845681;29;20413;-88
2022/08/30 03:29:10;;;;;;;4.63;3.30;;;;;;;22.49;58.42;93712.59;4863197;29;20048;-89
2022/08/30 03:31:35;;;;;;;5.28;3.80;;;;;;;22.49;58.53;93706.34;4879890;29;20035;-89
2022/08/30 03:34:01;;;;;;;4.95;3.58;;;;;;;22.49;58.43;93707.09;4879515;29;20405;-88
2022/08/30 03:36:27;;;;;;;6.15;4.10;;;;;;;22.49;58.26;93711.84;4849842;29;20116;-89
2022/08/30 03:38:52;;;;;;;5.35;4.03;;;;;;;22.50;58.42;93713.34;4859813;29;20037;-89
2022/08/30 03:41:18;;;;;;;6.75;3.80;;;;;;;22.48;58.43;93713.84;4869833;29;20044;-88
2022/08/30 03:43:46;;;;;;;4.60;3.28;;;;;;;22.49;58.51;93704.31;4863438;29;20033;-89
2022/08/30 03:46:11;;;;;;;9.55;3.83;;;;;;;22.49;58.05;93703.59;4879523;29;20032;-90
2022/08/30 03:48:36;;;;;;;5.40;3.97;;;;;;;22.50;58.13;93713.34;4879273;29;20037;-90
2022/08/30 03:51:02;;;;;;;5.93;3.95;;;;;;;22.50;58.03;93716.81;4864494;29;20105;-89
2022/08/30 03:53:27;;;;;;;5.30;3.88;;;;;;;22.50;58.29;93708.56;4844444;29;20454;-90
2022/08/30 03:55:53;;;;;;;3.90;3.42;;;;;;;22.49;58.50;93707.09;4858619;29;20045;-90
2022/08/30 03:58:19;;;;;;;4.10;3.53;;;;;;;22.50;58.18;93705.81;4858993;29;20034;-88
2022/08/30 04:00:44;;;;;;;4.88;3.40;;;;;;;22.51;58.25;93712.81;4850749;29;20049;-89
2022/08/30 04:03:11;;;;;;;5.50;3.58;;;;;;;22.52;58.17;93708.00;4859074;29;20037;-88
2022/08/30 04:05:36;;;;;;;4.72;3.47;;;;;;;22.50;58.07;93713.34;4864415;29;20041;-89
2022/08/30 04:08:02;;;;;;;6.45;3.75;;;;;;;22.48;57.63;93711.09;4850448;29;20033;-89
2022/08/30 04:10:29;;;;;;;112.38;16.92;;;;;;;22.40;56.18;93715.00;4848977;29;20417;-87
2022/08/30 04:12:55;;;;;;;51.45;10.95;;;;;;;22.38;55.80;93704.53;4840067;29;20036;-87
2022/08/30 04:15:21;;;;;;;35.58;8.80;;;;;;;22.42;55.53;93704.22;4856173;29;20105;-87
2022/08/30 04:17:46;;;;;;;19.52;6.05;;;;;;;22.44;56.46;93710.69;4851103;29;20040;-87
2022/08/30 04:20:12;;;;;;;17.42;6.55;;;;;;;22.40;56.17;93715.75;4875298;29;20036;-86
2022/08/30 04:22:37;;;;;;;17.45;6.32;;;;;;;22.35;56.76;93724.13;4876530;29;20096;-87
2022/08/30 04:25:03;;;;;;;10.70;6.00;;;;;;;22.28;57.01;93722.00;4847600;29;20049;-86
2022/08/30 04:27:29;;;;;;;13.05;6.00;;;;;;;22.28;57.04;93722.75;4865326;29;20047;-87
2022/08/30 04:29:55;;;;;;;16.90;6.90;;;;;;;22.29;56.64;93718.00;4864764;29;20037;-87
2022/08/30 04:32:20;;;;;;;17.75;6.70;;;;;;;22.32;56.52;93733.44;4851019;29;20130;-87
2022/08/30 04:34:46;;;;;;;36.97;15.23;;;;;;;22.31;56.80;93737.47;4862276;29;20041;-90
2022/08/30 04:37:13;;;;;;;26.20;7.82;;;;;;;22.32;56.79;93734.19;4859895;29;20037;-87
2022/08/30 04:39:39;;;;;;;24.50;11.05;;;;;;;22.32;56.79;93731.44;4849431;29;20045;-86
2022/08/30 04:42:05;;;;;;;29.65;12.90;;;;;;;22.40;56.52;93737.78;4846044;29;20104;-87
2022/08/30 04:44:31;;;;;;;27.05;9.18;;;;;;;22.37;56.63;93740.88;4858700;29;20041;-85
2022/08/30 04:46:58;;;;;;;28.90;10.73;;;;;;;22.39;56.68;93741.06;4851486;29;20088;-85
2022/08/30 04:49:24;;;;;;;24.70;9.05;;;;;;;22.43;56.20;93736.00;4876623;29;20056;-86
2022/08/30 04:51:50;;;;;;;13.75;8.25;;;;;;;22.37;55.73;93735.34;4869926;29;20041;-90
2022/08/30 04:54:18;;;;;;;37.88;10.35;;;;;;;22.34;56.21;93734.41;4847483;29;20282;-91
2022/08/30 04:56:45;;;;;;;27.17;9.13;;;;;;;22.33;56.15;93746.69;4878645;29;20651;-89
2022/08/30 04:59:17;;;;;;;40.70;12.90;;;;;;;22.34;56.03;93744.66;4875643;29;20045;-91
2022/08/30 05:01:42;;;;;;;36.08;12.02;;;;;;;22.31;56.09;93751.97;4867745;29;20075;-93
2022/08/30 05:04:15;;;;;;;36.35;11.23;;;;;;;22.32;56.27;93747.22;4862502;29;20579;-93
2022/08/30 05:06:48;;;;;;;33.40;11.10;;;;;;;22.31;55.97;93757.47;4859075;29;20045;-89
2022/08/30 05:09:36;;;;;;;33.45;11.95;;;;;;;22.32;55.82;93745.19;4809292;29;20129;-91
2022/08/30 05:12:02;;;;;;;39.13;16.40;;;;;;;22.29;55.86;93749.03;4794956;29;20047;-89
2022/08/30 05:14:28;;;;;;;33.60;13.20;;;;;;;22.13;54.92;93753.53;4781451;29;20055;-88
2022/08/30 05:16:54;;;;;;;18.45;8.57;;;;;;;21.93;54.42;93756.88;4782597;29;20127;-94
2022/08/30 05:19:19;;;;;;;16.90;8.45;;;;;;;21.84;54.07;93763.53;4767389;29;20047;-88
2022/08/30 05:21:45;;;;;;;16.23;7.18;;;;;;;21.78;54.47;93760.13;4802783;29;20082;-90
2022/08/30 05:24:10;;;;;;;22.70;9.18;;;;;;;21.69;54.40;93768.75;4777618;29;20074;-92
2022/08/30 05:26:36;;;;;;;18.27;8.82;;;;;;;21.69;54.91;93774.25;4747242;30;20043;-90
2022/08/30 05:29:02;;;;;;;16.08;8.90;;;;;;;21.70;54.72;93770.25;4790310;29;20100;-87
2022/08/30 05:31:30;;;;;;;18.92;9.15;;;;;;;21.67;55.06;93770.53;4787815;29;20051;-87
2022/08/30 05:33:58;;;;;;;17.25;8.80;;;;;;;21.58;55.32;93771.69;4790463;29;20044;-88
2022/08/30 05:36:34;;;;;;;19.45;9.15;;;;;;;21.53;55.54;93773.25;4776351;30;20050;-87
2022/08/30 05:39:03;;;;;;;22.63;9.40;;;;;;;21.44;55.84;93775.63;4767396;30;20043;-90
2022/08/30 05:41:28;;;;;;;27.40;10.60;;;;;;;21.41;55.92;93782.94;4792109;29;20039;-87
2022/08/30 05:44:00;;;;;;;27.27;15.48;;;;;;;21.43;55.91;93788.66;4787813;29;20050;-86
2022/08/30 05:46:31;;;;;;;15.88;10.18;;;;;;;21.39;55.90;93790.97;4759030;30;20155;-88
2022/08/30 05:49:02;;;;;;;19.33;10.70;;;;;;;21.44;55.78;93800.38;4764846;30;20039;-86
2022/08/30 05:51:28;;;;;;;;;;;;;;;21.62;55.80;93791.38;4762135;30;20047;-86
2022/08/30 05:53:54;;;;;;;17.73;10.05;;;;;;;21.43;56.29;93787.91;4802112;29;19962;-91
2022/08/30 05:56:22;;;;;;;18.20;12.85;;;;;;;21.53;56.32;93791.75;4750152;29;20141;-89
2022/08/30 05:58:47;;;;;;;28.50;13.27;;;;;;;21.32;56.87;93791.56;4768758;29;20126;-87
2022/08/30 06:01:22;;;;;;;31.48;14.63;;;;;;;21.46;56.59;93801.34;4751178;29;20149;-89
2022/08/30 06:03:48;;;;;;;32.58;14.45;;;;;;;21.42;56.74;93803.69;4826885;29;20049;-88
2022/08/30 06:06:16;;;;;;;14.82;9.60;;;;;;;21.45;56.80;93796.38;4824005;29;20055;-86
2022/08/30 06:08:44;;;;;;;21.65;9.60;;;;;;;21.37;56.83;93804.50;4821468;29;20560;-92
2022/08/30 06:11:11;;;;;;;43.30;17.02;;;;;;;21.41;56.84;93796.69;4845288;29;20446;-89
2022/08/30 06:13:39;;;;;;;46.85;12.23;;;;;;;21.45;56.81;93797.09;4841416;29;20041;-90
2022/08/30 06:16:15;;;;;;;30.13;8.98;;;;;;;21.45;57.10;93807.38;4839121;29;20041;-92
2022/08/30 06:18:42;;;;;;;192.00;164.88;;;;;;;21.43;57.26;93804.41;4829132;29;20050;-92
2022/08/30 06:21:15;;;;;;;334.42;273.98;;;;;;;21.46;57.62;93804.09;4802510;29;20046;-88
2022/08/30 06:23:41;;;;;;;16.98;8.85;;;;;;;21.49;56.98;93805.81;4817511;29;20056;-92
2022/08/30 06:26:07;;;;;;;12.40;8.75;;;;;;;21.48;57.44;93803.56;4825023;29;20054;-90
2022/08/30 06:28:33;;;;;;;13.55;8.65;;;;;;;21.51;57.09;93810.78;4819301;29;20038;-89
2022/08/30 06:30:59;;;;;;;33.45;13.43;;;;;;;21.48;57.24;93811.81;4821373;29;20458;-91
2022/08/30 06:33:25;;;;;;;16.13;9.55;;;;;;;21.48;57.09;93801.56;4810542;29;20121;-88
2022/08/30 06:35:50;;;;;;;19.33;10.30;;;;;;;21.50;57.06;93801.78;4802208;29;20285;-92
2022/08/30 06:38:16;;;;;;;20.38;12.65;;;;;;;21.49;57.08;93796.81;4813430;29;20046;-91
2022/08/30 06:40:42;;;;;;;31.98;18.25;;;;;;;21.48;57.30;93801.56;4834002;29;20063;-89
2022/08/30 06:43:08;;;;;;;37.08;17.00;;;;;;;21.48;57.38;93803.56;4831460;29;20041;-89
2022/08/30 06:45:34;;;;;;;18.90;11.23;;;;;;;21.45;57.51;93812.88;4858191;29;20038;-90
2022/08/30 06:47:59;;;;;;;21.55;11.88;;;;;;;21.44;57.21;93814.13;4830319;29;20789;-93
2022/08/30 06:50:25;;;;;;;21.85;13.00;;;;;;;21.46;57.42;93812.34;4851596;29;20048;-90
2022/08/30 06:52:50;;;;;;;31.70;11.77;;;;;;;21.47;57.55;93811.09;4861481;29;20353;-91
2022/08/30 06:55:16;;;;;;;51.20;16.20;;;;;;;21.55;57.32;93800.22;4857994;29;20035;-88
2022/08/30 06:57:41;;;;;;;28.90;16.08;;;;;;;21.58;57.27;93798.44;4859851;29;20037;-88
2022/08/30 07:00:08;;;;;;;59.58;22.98;;;;;;;21.61;57.10;93802.91;4860913;29;20044;-88
2022/08/30 07:02:36;;;;;;;21.02;10.80;;;;;;;21.67;57.05;93809.06;4847860;29;20049;-90
2022/08/30 07:05:01;;;;;;;14.45;8.40;;;;;;;21.62;57.29;93809.91;4848765;29;20101;-94
2022/08/30 07:07:27;;;;;;;15.40;9.93;;;;;;;21.57;57.34;93813.47;4851057;29;20037;-92
2022/08/30 07:09:53;;;;;;;18.20;10.05;;;;;;;21.61;57.34;93802.91;4828420;29;20113;-88
2022/08/30 07:12:20;;;;;;;14.80;9.30;;;;;;;21.60;56.76;93815.19;4843454;29;20045;-88
2022/08/30 07:14:45;;;;;;;32.13;16.10;;;;;;;21.63;56.97;93822.41;4870867;29;20097;-88
2022/08/30 07:20:00;;;;;;;132.88;74.28;;;;;;;21.68;56.33;93830.53;4818569;29;20178;-87
2022/08/30 07:22:26;;;;;;;73.75;43.95;;;;;;;21.73;55.83;93829.00;4804029;29;20062;-90
2022/08/30 07:24:52;;;;;;;73.50;41.58;;;;;;;21.75;56.07;93823.72;4781388;29;20061;-89
2022/08/30 07:27:20;;;;;;;95.20;24.90;;;;;;;21.76;55.94;93816.94;4812226;29;20042;-91
2022/08/30 07:29:48;;;;;;;21.50;10.88;;;;;;;21.73;55.91;93812.47;4823205;29;20046;-88
2022/08/30 07:32:15;;;;;;;151.30;24.50;;;;;;;21.75;55.91;93816.19;4810076;29;20062;-87
2022/08/30 07:34:42;;;;;;;1111.95;201.77;;;;;;;21.73;55.29;93807.72;4816180;29;20029;-87
2022/08/30 07:37:12;;;;;;;216.60;30.80;;;;;;;21.73;55.74;93807.72;4810313;29;20046;-88
2022/08/30 07:39:39;;;;;;;189.85;26.75;;;;;;;21.74;55.78;93809.19;4807208;29;20145;-89
2022/08/30 07:42:11;;;;;;;131.98;22.30;;;;;;;21.76;55.93;93814.94;4814130;29;20056;-89
2022/08/30 07:44:36;;;;;;;180.43;28.70;;;;;;;21.79;55.80;93813.16;4789304;29;20042;-89
2022/08/30 07:47:13;;;;;;;95.88;17.88;;;;;;;21.82;55.90;93818.34;4792765;29;20057;-92
2022/08/30 07:49:43;;;;;;;64.20;10.95;;;;;;;21.87;55.19;93816.75;4806235;29;20042;-92
2022/08/30 07:52:27;;;;;;;;;;;;;;;21.89;55.22;93812.22;4743489;30;20555;-87
2022/08/30 07:54:55;;;;;;;62.35;15.85;;;;;;;21.81;55.58;93808.59;4765647;30;19925;-91
2022/08/30 07:57:32;;;;;;;42.25;12.23;;;;;;;21.85;55.61;93809.06;4793709;29;20043;-93
2022/08/30 07:59:59;;;;;;;37.10;14.85;;;;;;;21.83;55.78;93817.09;4801035;29;20539;-90
2022/08/30 08:02:24;;;;;;;20.73;8.18;;;;;;;21.81;55.88;93818.88;4851726;23;20049;-90
2022/08/30 08:04:50;;;;;;;20.50;8.23;;;;;;;21.86;55.59;93815.28;4884608;29;20041;-88
2022/08/30 08:07:15;;;;;;;15.10;6.38;;;;;;;21.87;55.45;93798.22;4855974;29;20493;-91
2022/08/30 08:09:41;;;;;;;14.93;6.78;;;;;;;21.87;54.97;93816.75;4869269;29;20061;-89
2022/08/30 08:12:08;;;;;;;14.35;6.40;;;;;;;21.88;55.20;93818.25;4823325;29;20041;-94
2022/08/30 08:14:33;;;;;;;16.80;7.50;;;;;;;21.90;55.16;93816.47;4861615;29;20041;-96
2022/08/30 08:16:59;;;;;;;25.40;6.78;;;;;;;21.86;55.70;93820.81;4838142;29;20111;-88
2022/08/30 08:19:24;;;;;;;12.50;5.95;;;;;;;21.99;55.24;93809.81;4874745;29;20045;-88
2022/08/30 08:21:53;;;;;;;15.73;6.55;;;;;;;21.97;55.03;93811.63;4859773;29;20053;-86
2022/08/30 08:24:18;;;;;;;18.15;6.88;;;;;;;21.99;55.04;93809.09;4859894;29;20049;-89
2022/08/30 08:26:44;;;;;;;24.88;13.77;;;;;;;21.95;54.93;93820.41;4847056;29;20042;-86
2022/08/30 08:29:09;;;;;;;26.25;12.73;;;;;;;21.94;54.58;93809.91;4844449;29;20389;-87
2022/08/30 08:31:35;;;;;;;16.38;8.15;;;;;;;21.94;54.46;93816.16;4840829;29;20046;-90
2022/08/30 08:34:03;;;;;;;13.93;7.28;;;;;;;21.97;54.48;93812.34;4840730;29;20069;-86
2022/08/30 08:36:30;;;;;;;38.38;18.25;;;;;;;21.96;54.35;93810.88;4880010;29;20050;-86
2022/08/30 08:38:56;;;;;;;536.15;154.40;;;;;;;21.97;54.53;93806.84;4858102;29;20046;-90
2022/08/30 08:41:31;;;;;;;125.15;42.03;;;;;;;21.98;54.52;93799.34;4848935;29;20041;-86
2022/08/30 08:43:56;;;;;;;55.75;29.85;;;;;;;22.00;54.26;93810.56;4847767;29;20048;-84
2022/08/30 08:46:34;;;;;;;59.50;27.92;;;;;;;22.00;54.17;93805.06;4860077;29;20222;-86
2022/08/30 08:49:02;;;;;;;70.82;39.75;;;;;;;22.02;54.33;93799.81;4859862;29;20073;-86
2022/08/30 08:54:27;;;;;;;44.92;25.50;;;;;;;22.07;54.36;93798.97;4875832;29;20189;-87
2022/08/30 08:56:53;;;;;;;47.72;22.88;;;;;;;22.08;54.46;93798.47;4841968;29;20041;-87
2022/08/30 08:59:27;;;;;;;62.70;24.88;;;;;;;22.11;54.66;93804.91;4844491;29;20042;-87
2022/08/30 09:01:53;;;;;;;82.60;25.92;;;;;;;22.12;54.69;93800.88;4845470;29;20278;-90
2022/08/30 09:04:23;;;;;;;99.90;25.35;;;;;;;22.19;54.54;93803.75;4830608;29;20034;-88
2022/08/30 09:07:07;;;;;;;64.90;21.03;;;;;;;22.18;54.46;93807.03;4861400;29;20038;-88
2022/08/30 09:09:37;;;;;;;54.70;17.70;;;;;;;22.18;54.83;93810.53;4815763;29;20050;-87
2022/08/30 09:12:03;;;;;;;68.55;20.63;;;;;;;22.21;54.69;93800.50;4824501;29;20042;-90
2022/08/30 09:14:52;;;;;;;66.18;20.65;;;;;;;22.19;54.53;93800.25;4850920;29;20055;-87
2022/08/30 09:17:18;;;;;;;26.15;11.35;;;;;;;22.19;54.37;93795.50;4858478;29;20131;-90
2022/08/30 09:19:53;;;;;;;33.63;14.35;;;;;;;22.20;54.62;93790.75;4856108;29;20076;-87
2022/08/30 09:22:25;;;;;;;22.05;12.10;;;;;;;22.21;54.38;93792.22;4884298;23;20088;-87
2022/08/30 09:25:01;;;;;;;78.38;17.75;;;;;;;22.27;54.55;93786.63;4864351;29;20049;-88
2022/08/30 09:27:30;;;;;;;33.45;11.88;;;;;;;22.25;54.60;93800.91;4849476;29;20045;-90
2022/08/30 09:30:01;;;;;;;37.33;11.55;;;;;;;22.25;54.75;93795.41;4833847;29;20041;-87
2022/08/30 09:32:28;;;;;;;;;;;;;;;22.28;54.80;93793.63;4807042;29;20144;-88
2022/08/30 09:34:54;;;;;;;12.73;8.30;;;;;;;22.30;55.15;93782.81;4807619;29;19932;-86
2022/08/30 09:37:28;;;;;;;20.52;9.15;;;;;;;22.33;55.06;93790.75;4810189;29;20130;-87
2022/08/30 09:39:53;;;;;;;20.83;9.77;;;;;;;22.31;54.99;93782.28;4816437;29;20129;-88
2022/08/30 09:42:25;;;;;;;17.92;9.77;;;;;;;22.28;53.94;93783.34;4809984;29;20050;-89
2022/08/30 09:44:52;;;;;;;16.38;9.25;;;;;;;22.28;54.32;93780.59;4819682;29;20046;-88
2022/08/30 09:47:28;;;;;;;23.15;15.43;;;;;;;22.28;54.48;93769.56;4811201;29;20046;-86
2022/08/30 09:50:06;;;;;;;32.70;14.43;;;;;;;22.31;54.44;93771.25;4829220;29;20042;-86
2022/08/30 09:52:47;;;;;;;18.02;10.00;;;;;;;22.30;54.25;93771.81;4806931;29;20093;-86
2022/08/30 09:55:35;;;;;;;17.00;8.40;;;;;;;22.30;54.53;93775.28;4814396;29;20062;-88
2022/08/30 09:58:00;;;;;;;12.65;6.55;;;;;;;22.30;54.79;93764.25;4805995;29;20041;-93
2022/08/30 10:00:30;;;;;;;12.70;8.15;;;;;;;22.31;54.64;93774.00;4817062;29;20054;-88
2022/08/30 10:03:12;;;;;;;14.68;8.30;;;;;;;22.33;54.94;93768.72;4818272;29;20045;-86
2022/08/30 10:05:43;;;;;;;10.35;8.38;;;;;;;22.31;54.44;93767.75;4833239;29;20049;-86
2022/08/30 10:08:15;;;;;;;;;;;;;;;22.35;54.47;93779.94;4858710;29;20055;-86
2022/08/30 10:10:52;;;;;;;12.18;7.95;;;;;;;22.35;54.59;93770.94;4844421;29;19951;-86
2022/08/30 10:13:28;;;;;;;12.82;8.02;;;;;;;22.36;54.37;93772.44;4842989;29;20041;-86
2022/08/30 10:16:03;;;;;;;15.32;7.85;;;;;;;22.38;54.30;93767.13;4849892;29;20041;-86
2022/08/30 10:18:37;;;;;;;247.38;210.93;;;;;;;22.38;54.34;93756.13;4853461;29;20060;-89
2022/08/30 10:21:20;;;;;;;36.08;29.45;;;;;;;22.42;54.02;93748.28;4862947;29;20393;-87
2022/08/30 10:24:00;;;;;;;18.25;12.52;;;;;;;22.40;54.27;93754.31;4861452;29;20049;-87
2022/08/30 10:26:40;;;;;;;343.60;292.27;;;;;;;22.38;54.39;93745.84;4864872;29;20558;-88
2022/08/30 10:29:11;;;;;;;19.17;13.85;;;;;;;22.41;54.34;93744.03;4866163;29;20129;-86
2022/08/30 10:31:54;;;;;;;13.20;10.52;;;;;;;22.40;53.93;93740.53;4875140;29;20044;-87
2022/08/30 10:34:30;;;;;;;12.77;8.38;;;;;;;22.42;53.66;93740.03;4887575;29;20056;-95
2022/08/30 10:37:00;;;;;;;8.43;6.82;;;;;;;22.42;53.48;93748.28;4873553;29;20044;-86
2022/08/30 10:39:27;;;;;;;58.87;10.63;;;;;;;22.41;53.27;93744.78;4854570;29;20056;-91
2022/08/30 10:41:58;;;;;;;113.35;13.55;;;;;;;22.40;53.40;93740.53;4872458;29;20037;-89
2022/08/30 10:44:29;;;;;;;176.40;19.52;;;;;;;22.39;53.05;93739.06;4860666;29;20637;-90
2022/08/30 10:47:20;;;;;;;209.75;22.88;;;;;;;22.40;53.15;93742.56;4876863;29;20105;-90
2022/08/30 10:49:46;;;;;;;119.57;16.48;;;;;;;22.36;53.27;93736.63;4880814;29;20059;-88
2022/08/30 10:52:24;;;;;;;82.55;12.38;;;;;;;22.38;53.06;93740.34;4827244;29;20501;-88
2022/08/30 10:54:53;;;;;;;79.88;13.00;;;;;;;22.42;53.05;93743.53;4842531;29;20079;-88
2022/08/30 10:57:18;;;;;;;98.57;17.48;;;;;;;22.39;52.99;93741.81;4830187;29;20137;-87
2022/08/30 10:59:47;;;;;;;110.63;16.58;;;;;;;22.41;53.12;93741.28;4838289;29;20045;-88
2022/08/30 11:02:37;;;;;;;60.13;14.20;;;;;;;22.40;53.19;93739.81;4840033;29;20056;-86
2022/08/30 11:05:24;;;;;;;51.55;20.23;;;;;;;22.40;53.15;93743.31;4852720;29;20056;-87
2022/08/30 11:07:56;;;;;;;94.53;29.77;;;;;;;22.40;53.12;93731.53;4853219;29;20041;-92
2022/08/30 11:10:31;;;;;;;108.07;33.67;;;;;;;22.38;53.48;93740.34;4851974;29;20505;-85
2022/08/30 11:13:08;;;;;;;100.72;35.85;;;;;;;22.39;53.22;93727.31;4878502;29;20064;-87
2022/08/30 11:15:34;;;;;;;115.45;37.17;;;;;;;22.40;53.40;93731.53;4855522;29;20041;-86
2022/08/30 11:18:09;;;;;;;64.70;25.02;;;;;;;22.39;53.60;93724.56;4823710;29;20071;-91
2022/08/30 11:20:48;;;;;;;87.55;24.63;;;;;;;22.39;53.43;93736.31;4871971;29;20048;-87
2022/08/30 11:23:26;;;;;;;65.07;23.88;;;;;;;22.38;53.52;93718.28;4843480;29;20046;-87
2022/08/30 11:26:12;;;;;;;64.72;25.88;;;;;;;22.40;53.61;93726.78;4842729;29;20120;-86
2022/08/30 11:28:40;;;;;;;58.22;25.40;;;;;;;22.40;53.89;93729.53;4823987;29;20046;-86
2022/08/30 11:31:06;;;;;;;50.47;23.85;;;;;;;22.41;53.56;93722.00;4839510;29;20062;-87
2022/08/30 11:33:44;;;;;;;38.75;17.48;;;;;;;22.42;53.67;93718.72;4853276;29;20042;-87
2022/08/30 11:36:11;;;;;;;35.00;18.65;;;;;;;22.40;53.64;93724.03;4853555;29;20045;-87